Charlotte Roush — WDE5112 — position and weather

sailwx.info

Track history (hours):
 
Tides and Currents Weather Stations Pressure Air Temp Water Temp Dewpoint Dewpoint Depression Visibility Wind Speed Wind Dir Waves Ship Positions

Charlotte Roush

Owner: AEP River Operations LLC, Chesterfield, MO. More information available from US FCC via Universal Licensing System and Coast Guard Vessel Documentation Center.

Last reported at 2015-Apr-28 00:15 UTC. Time now 2015-Apr-28 05:21 UTC.
Position N 29°57' W 090°03'.

Length 35 m; draft 3 m.

Type: Towing. MMSI: 367362230.

Date/timePositionNaut miles runAvg speedWind from/ knotsBaromVisibWave heightAir tempDewpointWater temp
2015-Apr-28 00:15N 29°57' W 090°03'3 3.7
2015-Apr-27 23:33N 29°57' W 090°01'7 0.6
2015-Apr-27 11:32N 29°56' W 090°08'8 3.7
2015-Apr-27 09:25N 29°56' W 089°59'4 3.4
2015-Apr-27 08:22N 29°57' W 090°03'17 2.0
2015-Apr-27 00:15N 29°56' W 090°22'10 0.4
2015-Apr-25 23:29N 30°03' W 090°32'2 1.9
2015-Apr-25 22:14N 30°03' W 090°29'19 0.9
2015-Apr-25 00:29N 29°57' W 090°09'3 3.3
2015-Apr-24 23:30N 29°55' W 090°06'3 3.5
2015-Apr-24 22:32N 29°57' W 090°03'3 2.6
2015-Apr-24 21:32N 29°56' W 090°01'0 0.0
2015-Apr-24 20:33N 29°56' W 090°01'0 0.0
2015-Apr-24 19:33N 29°56' W 090°01'0 0.1
2015-Apr-24 18:32N 29°57' W 090°01'0 0.1
2015-Apr-24 17:33N 29°56' W 090°01'0 0.0
2015-Apr-24 16:30N 29°56' W 090°01'0 0.0
2015-Apr-24 15:29N 29°56' W 090°01'0 0.0
2015-Apr-24 14:27N 29°56' W 090°01'0 0.0
2015-Apr-24 13:26N 29°56' W 090°01'0 0.0
2015-Apr-24 12:16N 29°56' W 090°01'0 0.0
2015-Apr-24 11:24N 29°56' W 090°01'0 0.0
2015-Apr-23 09:24N 29°57' W 090°01'0 0.3
2015-Apr-23 08:33N 29°57' W 090°01'3 2.5
2015-Apr-23 07:19N 29°55' W 090°04'29 1.6
2015-Apr-22 13:33N 30°02' W 090°36'0 0.0
2015-Apr-22 12:33N 30°02' W 090°36'8 1.2
2015-Apr-22 06:23N 30°00' W 090°28'5 4.8
2015-Apr-22 05:18N 29°57' W 090°23'13 1.0
2015-Apr-21 16:19N 29°57' W 090°09'3 3.2
2015-Apr-21 15:27N 29°55' W 090°06'4 3.9
2015-Apr-21 14:24N 29°57' W 090°02'2 1.8
2015-Apr-21 13:32N 29°57' W 090°01'2 1.8
2015-Apr-21 12:31N 29°58' W 090°03'5 5.2
2015-Apr-21 11:32N 29°57' W 090°08'1 0.5
2015-Apr-21 10:32N 29°56' W 090°09'1 1.3
2015-Apr-21 09:24N 29°57' W 090°09'11 4.7
2015-Apr-21 07:06N 29°56' W 090°22'25 0.6
2015-Apr-19 14:21N 30°01' W 090°50'1 1.3
2015-Apr-19 13:30N 29°60' W 090°50'  
Track history (hours):
 
Tides and Currents Weather Stations Pressure Air Temp Water Temp Dewpoint Dewpoint Depression Visibility Wind Speed Wind Dir Waves Ship Positions

Charlotte Roush

Owner: AEP River Operations LLC, Chesterfield, MO. More information available from US FCC via Universal Licensing System and Coast Guard Vessel Documentation Center.

Last reported at 2015-Apr-28 00:15 UTC. Time now 2015-Apr-28 05:21 UTC.
Position N 29°57' W 090°03'.

Length 35 m; draft 3 m.

Type: Towing. MMSI: 367362230.

Date/timePositionNaut miles runAvg speedWind from/ knotsBaromVisibWave heightAir tempDewpointWater temp
2015-Apr-28 00:15N 29°57' W 090°03'3 3.7
2015-Apr-27 23:33N 29°57' W 090°01'7 0.6
2015-Apr-27 11:32N 29°56' W 090°08'8 3.7
2015-Apr-27 09:25N 29°56' W 089°59'4 3.4
2015-Apr-27 08:22N 29°57' W 090°03'17 2.0
2015-Apr-27 00:15N 29°56' W 090°22'10 0.4
2015-Apr-25 23:29N 30°03' W 090°32'2 1.9
2015-Apr-25 22:14N 30°03' W 090°29'19 0.9
2015-Apr-25 00:29N 29°57' W 090°09'3 3.3
2015-Apr-24 23:30N 29°55' W 090°06'3 3.5
2015-Apr-24 22:32N 29°57' W 090°03'3 2.6
2015-Apr-24 21:32N 29°56' W 090°01'0 0.0
2015-Apr-24 20:33N 29°56' W 090°01'0 0.0
2015-Apr-24 19:33N 29°56' W 090°01'0 0.1
2015-Apr-24 18:32N 29°57' W 090°01'0 0.1
2015-Apr-24 17:33N 29°56' W 090°01'0 0.0
2015-Apr-24 16:30N 29°56' W 090°01'0 0.0
2015-Apr-24 15:29N 29°56' W 090°01'0 0.0
2015-Apr-24 14:27N 29°56' W 090°01'0 0.0
2015-Apr-24 13:26N 29°56' W 090°01'0 0.0
2015-Apr-24 12:16N 29°56' W 090°01'0 0.0
2015-Apr-24 11:24N 29°56' W 090°01'0 0.0
2015-Apr-23 09:24N 29°57' W 090°01'0 0.3
2015-Apr-23 08:33N 29°57' W 090°01'3 2.5
2015-Apr-23 07:19N 29°55' W 090°04'29 1.6
2015-Apr-22 13:33N 30°02' W 090°36'0 0.0
2015-Apr-22 12:33N 30°02' W 090°36'8 1.2
2015-Apr-22 06:23N 30°00' W 090°28'5 4.8
2015-Apr-22 05:18N 29°57' W 090°23'13 1.0
2015-Apr-21 16:19N 29°57' W 090°09'3 3.2
2015-Apr-21 15:27N 29°55' W 090°06'4 3.9
2015-Apr-21 14:24N 29°57' W 090°02'2 1.8
2015-Apr-21 13:32N 29°57' W 090°01'2 1.8
2015-Apr-21 12:31N 29°58' W 090°03'5 5.2
2015-Apr-21 11:32N 29°57' W 090°08'1 0.5
2015-Apr-21 10:32N 29°56' W 090°09'1 1.3
2015-Apr-21 09:24N 29°57' W 090°09'11 4.7
2015-Apr-21 07:06N 29°56' W 090°22'25 0.6
2015-Apr-19 14:21N 30°01' W 090°50'1 1.3
2015-Apr-19 13:30N 29°60' W 090°50'  

Dump ship's entire track history